sensor_id;sensor_type;location;lat;lon;timestamp;pressure;altitude;pressure_sealevel;temperature;humidity
73651;BME280;61944;52.538;6.108;2023-01-13T00:00:58;100094.69;;;8.71;100.00
73651;BME280;61944;52.538;6.108;2023-01-13T00:03:24;100087.00;;;8.61;100.00
73651;BME280;61944;52.538;6.108;2023-01-13T00:05:50;100067.25;;;8.40;100.00
73651;BME280;61944;52.538;6.108;2023-01-13T00:08:15;100085.75;;;8.55;100.00
73651;BME280;61944;52.538;6.108;2023-01-13T00:10:41;100067.38;;;8.50;100.00
73651;BME280;61944;52.538;6.108;2023-01-13T00:13:10;100092.22;;;8.66;100.00
73651;BME280;61944;52.538;6.108;2023-01-13T00:15:35;100068.88;;;8.41;100.00
73651;BME280;61944;52.538;6.108;2023-01-13T00:18:01;100090.19;;;8.60;100.00
73651;BME280;61944;52.538;6.108;2023-01-13T00:20:26;100068.50;;;8.42;100.00
73651;BME280;61944;52.538;6.108;2023-01-13T00:22:52;100081.81;;;8.56;100.00
73651;BME280;61944;52.538;6.108;2023-01-13T00:25:17;100070.03;;;8.40;100.00
73651;BME280;61944;52.538;6.108;2023-01-13T00:27:43;100069.63;;;8.38;100.00
73651;BME280;61944;52.538;6.108;2023-01-13T00:30:09;100065.72;;;8.42;100.00
73651;BME280;61944;52.538;6.108;2023-01-13T00:32:34;100083.09;;;8.32;100.00
73651;BME280;61944;52.538;6.108;2023-01-13T00:35:00;100055.25;;;8.35;100.00
73651;BME280;61944;52.538;6.108;2023-01-13T00:37:25;100058.38;;;8.30;100.00
73651;BME280;61944;52.538;6.108;2023-01-13T00:39:51;100056.38;;;8.27;100.00
73651;BME280;61944;52.538;6.108;2023-01-13T00:42:18;100079.16;;;8.33;100.00
73651;BME280;61944;52.538;6.108;2023-01-13T00:45:03;100077.47;;;8.28;100.00
73651;BME280;61944;52.538;6.108;2023-01-13T00:47:29;100058.75;;;8.25;100.00
73651;BME280;61944;52.538;6.108;2023-01-13T00:49:55;100037.59;;;8.21;100.00
73651;BME280;61944;52.538;6.108;2023-01-13T00:52:21;100055.22;;;8.32;100.00
73651;BME280;61944;52.538;6.108;2023-01-13T00:54:46;100063.31;;;8.41;100.00
73651;BME280;61944;52.538;6.108;2023-01-13T00:57:12;100074.78;;;8.35;100.00
73651;BME280;61944;52.538;6.108;2023-01-13T00:59:39;100079.34;;;8.51;100.00
73651;BME280;61944;52.538;6.108;2023-01-13T01:02:05;100074.38;;;8.33;100.00
73651;BME280;61944;52.538;6.108;2023-01-13T01:04:30;100050.31;;;8.18;100.00
73651;BME280;61944;52.538;6.108;2023-01-13T01:06:56;100076.78;;;8.35;100.00
73651;BME280;61944;52.538;6.108;2023-01-13T01:09:21;100096.63;;;8.30;100.00
73651;BME280;61944;52.538;6.108;2023-01-13T01:11:46;100071.78;;;8.18;100.00
73651;BME280;61944;52.538;6.108;2023-01-13T01:14:12;100065.41;;;8.17;100.00
73651;BME280;61944;52.538;6.108;2023-01-13T01:16:39;100087.00;;;8.24;100.00
73651;BME280;61944;52.538;6.108;2023-01-13T01:19:05;100061.31;;;8.07;100.00
73651;BME280;61944;52.538;6.108;2023-01-13T01:21:31;100086.16;;;8.20;100.00
73651;BME280;61944;52.538;6.108;2023-01-13T01:23:59;100079.59;;;8.05;100.00
73651;BME280;61944;52.538;6.108;2023-01-13T01:26:26;100074.44;;;8.07;100.00
73651;BME280;61944;52.538;6.108;2023-01-13T01:28:52;100075.56;;;7.99;100.00
73651;BME280;61944;52.538;6.108;2023-01-13T01:31:24;100072.34;;;7.97;100.00
73651;BME280;61944;52.538;6.108;2023-01-13T01:33:50;100083.75;;;8.18;100.00
73651;BME280;61944;52.538;6.108;2023-01-13T01:36:18;100066.69;;;7.89;100.00
73651;BME280;61944;52.538;6.108;2023-01-13T01:38:44;100085.19;;;8.05;100.00
73651;BME280;61944;52.538;6.108;2023-01-13T01:41:21;100080.19;;;7.87;100.00
73651;BME280;61944;52.538;6.108;2023-01-13T01:44:06;100077.06;;;7.92;100.00
73651;BME280;61944;52.538;6.108;2023-01-13T01:46:40;100072.34;;;7.97;100.00
73651;BME280;61944;52.538;6.108;2023-01-13T01:51:52;100075.47;;;7.91;100.00
73651;BME280;61944;52.538;6.108;2023-01-13T01:54:36;100076.31;;;7.96;100.00
73651;BME280;61944;52.538;6.108;2023-01-13T01:57:03;100056.88;;;7.69;100.00
73651;BME280;61944;52.538;6.108;2023-01-13T01:59:31;100083.72;;;7.81;100.00
73651;BME280;61944;52.538;6.108;2023-01-13T02:01:59;100058.56;;;7.77;100.00
73651;BME280;61944;52.538;6.108;2023-01-13T02:04:29;100052.41;;;7.61;100.00
73651;BME280;61944;52.538;6.108;2023-01-13T02:06:56;100090.06;;;7.81;100.00
73651;BME280;61944;52.538;6.108;2023-01-13T02:09:24;100071.09;;;7.60;100.00
73651;BME280;61944;52.538;6.108;2023-01-13T02:11:50;100096.41;;;7.78;100.00
73651;BME280;61944;52.538;6.108;2023-01-13T02:14:34;100092.94;;;7.88;100.00
73651;BME280;61944;52.538;6.108;2023-01-13T02:17:14;100086.44;;;7.77;100.00
73651;BME280;61944;52.538;6.108;2023-01-13T02:33:16;100046.53;;;7.69;100.00
73651;BME280;61944;52.538;6.108;2023-01-13T02:35:51;100051.31;;;7.69;100.00
73651;BME280;61944;52.538;6.108;2023-01-13T02:38:31;100032.16;;;7.64;100.00
73651;BME280;61944;52.538;6.108;2023-01-13T02:41:06;100036.94;;;7.63;100.00
73651;BME280;61944;52.538;6.108;2023-01-13T02:43:57;100029.78;;;7.66;100.00
73651;BME280;61944;52.538;6.108;2023-01-13T02:46:35;100033.31;;;7.59;100.00
73651;BME280;61944;52.538;6.108;2023-01-13T02:49:06;100042.88;;;7.62;100.00
73651;BME280;61944;52.538;6.108;2023-01-13T02:51:33;100033.56;;;7.50;100.00
73651;BME280;61944;52.538;6.108;2023-01-13T02:54:02;100051.41;;;7.76;100.00
73651;BME280;61944;52.538;6.108;2023-01-13T02:56:32;100023.38;;;7.62;100.00
73651;BME280;61944;52.538;6.108;2023-01-13T02:58:59;100021.72;;;7.57;100.00
73651;BME280;61944;52.538;6.108;2023-01-13T03:01:25;100042.63;;;7.74;100.00
73651;BME280;61944;52.538;6.108;2023-01-13T03:03:51;100048.34;;;7.88;100.00
73651;BME280;61944;52.538;6.108;2023-01-13T03:09:21;100008.22;;;7.59;100.00
73651;BME280;61944;52.538;6.108;2023-01-13T03:12:05;100023.63;;;7.83;100.00
73651;BME280;61944;52.538;6.108;2023-01-13T03:14:46;100014.00;;;7.77;100.00
73651;BME280;61944;52.538;6.108;2023-01-13T03:25:01;99993.25;;;7.71;100.00
73651;BME280;61944;52.538;6.108;2023-01-13T03:27:49;100018.13;;;7.90;100.00
73651;BME280;61944;52.538;6.108;2023-01-13T03:32:48;99995.34;;;7.81;100.00
73651;BME280;61944;52.538;6.108;2023-01-13T03:35:19;100010.91;;;7.86;100.00
73651;BME280;61944;52.538;6.108;2023-01-13T03:37:55;100004.19;;;7.87;100.00
73651;BME280;61944;52.538;6.108;2023-01-13T03:40:30;100003.03;;;7.91;100.00
73651;BME280;61944;52.538;6.108;2023-01-13T03:43:04;99987.03;;;7.85;100.00
73651;BME280;61944;52.538;6.108;2023-01-13T03:45:56;100005.09;;;7.98;100.00
73651;BME280;61944;52.538;6.108;2023-01-13T03:48:25;100006.19;;;7.90;100.00
73651;BME280;61944;52.538;6.108;2023-01-13T03:50:55;99970.59;;;7.72;100.00
73651;BME280;61944;52.538;6.108;2023-01-13T03:53:26;100012.97;;;7.92;100.00
73651;BME280;61944;52.538;6.108;2023-01-13T03:56:06;100006.19;;;7.90;100.00
73651;BME280;61944;52.538;6.108;2023-01-13T03:58:40;99970.50;;;7.65;100.00
73651;BME280;61944;52.538;6.108;2023-01-13T04:01:15;100008.44;;;7.77;100.00
73651;BME280;61944;52.538;6.108;2023-01-13T04:03:49;100011.28;;;7.81;100.00
73651;BME280;61944;52.538;6.108;2023-01-13T04:09:15;100001.81;;;7.92;100.00
73651;BME280;61944;52.538;6.108;2023-01-13T04:11:45;100006.13;;;7.83;100.00
73651;BME280;61944;52.538;6.108;2023-01-13T04:14:14;100012.41;;;7.76;100.00
73651;BME280;61944;52.538;6.108;2023-01-13T04:16:41;100006.88;;;7.80;100.00
73651;BME280;61944;52.538;6.108;2023-01-13T04:19:07;100003.53;;;7.67;100.00
73651;BME280;61944;52.538;6.108;2023-01-13T04:21:34;100000.38;;;7.68;100.00
73651;BME280;61944;52.538;6.108;2023-01-13T04:23:59;99998.38;;;7.69;100.00
73651;BME280;61944;52.538;6.108;2023-01-13T04:26:25;100011.66;;;7.79;100.00
73651;BME280;61944;52.538;6.108;2023-01-13T04:28:50;100009.94;;;7.71;100.00
73651;BME280;61944;52.538;6.108;2023-01-13T04:31:19;100000.44;;;7.72;100.00
73651;BME280;61944;52.538;6.108;2023-01-13T04:33:44;99981.22;;;7.63;100.00
73651;BME280;61944;52.538;6.108;2023-01-13T04:36:09;99978.16;;;7.72;100.00
73651;BME280;61944;52.538;6.108;2023-01-13T04:38:35;99960.88;;;7.59;100.00
73651;BME280;61944;52.538;6.108;2023-01-13T04:41:00;99985.66;;;7.68;100.00
73651;BME280;61944;52.538;6.108;2023-01-13T04:43:26;99970.03;;;7.60;100.00
73651;BME280;61944;52.538;6.108;2023-01-13T04:45:51;99982.88;;;7.71;100.00
73651;BME280;61944;52.538;6.108;2023-01-13T04:48:16;99983.97;;;7.60;100.00
73651;BME280;61944;52.538;6.108;2023-01-13T04:50:42;99977.28;;;7.68;100.00
73651;BME280;61944;52.538;6.108;2023-01-13T04:53:07;99985.97;;;7.63;100.00
73651;BME280;61944;52.538;6.108;2023-01-13T04:55:33;99961.88;;;7.44;100.00
73651;BME280;61944;52.538;6.108;2023-01-13T04:58:08;99975.56;;;7.56;100.00
73651;BME280;61944;52.538;6.108;2023-01-13T05:00:34;99973.25;;;7.62;100.00
73651;BME280;61944;52.538;6.108;2023-01-13T05:03:00;99972.03;;;7.63;100.00
73651;BME280;61944;52.538;6.108;2023-01-13T05:05:27;99941.28;;;7.52;100.00
73651;BME280;61944;52.538;6.108;2023-01-13T05:07:55;99957.97;;;7.48;100.00
73651;BME280;61944;52.538;6.108;2023-01-13T05:10:21;99960.91;;;7.63;100.00
73651;BME280;61944;52.538;6.108;2023-01-13T05:12:46;99978.81;;;7.62;100.00
73651;BME280;61944;52.538;6.108;2023-01-13T05:15:30;99949.69;;;7.56;100.00
73651;BME280;61944;52.538;6.108;2023-01-13T05:18:15;99964.00;;;7.54;100.00
73651;BME280;61944;52.538;6.108;2023-01-13T05:20:41;99976.44;;;7.64;100.00
73651;BME280;61944;52.538;6.108;2023-01-13T05:23:06;99987.66;;;7.67;100.00
73651;BME280;61944;52.538;6.108;2023-01-13T05:25:50;99967.06;;;7.45;100.00
73651;BME280;61944;52.538;6.108;2023-01-13T05:28:15;99981.19;;;7.60;100.00
73651;BME280;61944;52.538;6.108;2023-01-13T05:30:43;99981.06;;;7.52;100.00
73651;BME280;61944;52.538;6.108;2023-01-13T05:33:12;99981.91;;;7.57;100.00
73651;BME280;61944;52.538;6.108;2023-01-13T05:35:39;99975.84;;;7.47;100.00
73651;BME280;61944;52.538;6.108;2023-01-13T05:38:05;99977.50;;;7.52;100.00
73651;BME280;61944;52.538;6.108;2023-01-13T05:40:30;99973.50;;;7.49;100.00
73651;BME280;61944;52.538;6.108;2023-01-13T05:43:17;99989.53;;;7.60;100.00
73651;BME280;61944;52.538;6.108;2023-01-13T05:45:55;99983.16;;;7.59;100.00
73651;BME280;61944;52.538;6.108;2023-01-13T05:48:33;99956.28;;;7.40;100.00
73651;BME280;61944;52.538;6.108;2023-01-13T05:51:00;99964.03;;;7.58;100.00
73651;BME280;61944;52.538;6.108;2023-01-13T05:53:26;99993.84;;;7.53;100.00
73651;BME280;61944;52.538;6.108;2023-01-13T05:55:52;99980.16;;;7.41;100.00
73651;BME280;61944;52.538;6.108;2023-01-13T05:58:19;99992.13;;;7.45;100.00
73651;BME280;61944;52.538;6.108;2023-01-13T06:00:45;99985.28;;;7.39;100.00
73651;BME280;61944;52.538;6.108;2023-01-13T06:03:11;99980.16;;;7.41;100.00
73651;BME280;61944;52.538;6.108;2023-01-13T06:05:37;99990.38;;;7.33;100.00
73651;BME280;61944;52.538;6.108;2023-01-13T06:08:04;100010.03;;;7.44;100.00
73651;BME280;61944;52.538;6.108;2023-01-13T06:10:30;99990.97;;;7.46;100.00
73651;BME280;61944;52.538;6.108;2023-01-13T06:12:56;100005.72;;;7.50;100.00
73651;BME280;61944;52.538;6.108;2023-01-13T06:15:22;100000.50;;;7.45;100.00
73651;BME280;61944;52.538;6.108;2023-01-13T06:17:47;99986.16;;;7.43;100.00
73651;BME280;61944;52.538;6.108;2023-01-13T06:20:14;100003.41;;;7.56;100.00
73651;BME280;61944;52.538;6.108;2023-01-13T06:22:42;99980.94;;;7.42;100.00
73651;BME280;61944;52.538;6.108;2023-01-13T06:28:12;100004.19;;;7.57;100.00
73651;BME280;61944;52.538;6.108;2023-01-13T06:30:42;99995.47;;;7.58;100.00
73651;BME280;61944;52.538;6.108;2023-01-13T06:33:12;99981.78;;;7.46;100.00
73651;BME280;61944;52.538;6.108;2023-01-13T06:35:43;99994.00;;;7.68;100.00
73651;BME280;61944;52.538;6.108;2023-01-13T06:38:11;99985.84;;;7.52;100.00
73651;BME280;61944;52.538;6.108;2023-01-13T06:40:40;99988.75;;;7.63;100.00
73651;BME280;61944;52.538;6.108;2023-01-13T06:43:06;100004.19;;;7.57;100.00
73651;BME280;61944;52.538;6.108;2023-01-13T06:45:48;99974.72;;;7.52;100.00
73651;BME280;61944;52.538;6.108;2023-01-13T06:48:14;99978.75;;;7.58;100.00
73651;BME280;61944;52.538;6.108;2023-01-13T06:50:41;99985.06;;;7.51;100.00
73651;BME280;61944;52.538;6.108;2023-01-13T06:53:07;99994.34;;;7.63;100.00
73651;BME280;61944;52.538;6.108;2023-01-13T06:55:33;100014.34;;;7.72;100.00
73651;BME280;61944;52.538;6.108;2023-01-13T06:57:58;100021.88;;;7.68;100.00
73651;BME280;61944;52.538;6.108;2023-01-13T07:00:25;99996.38;;;7.66;100.00
73651;BME280;61944;52.538;6.108;2023-01-13T07:02:51;100006.41;;;7.74;100.00
73651;BME280;61944;52.538;6.108;2023-01-13T07:05:18;100011.22;;;7.77;100.00
73651;BME280;61944;52.538;6.108;2023-01-13T07:07:43;100016.38;;;7.75;100.00
73651;BME280;61944;52.538;6.108;2023-01-13T07:10:11;100004.06;;;7.76;100.00
73651;BME280;61944;52.538;6.108;2023-01-13T07:12:38;100008.53;;;7.84;100.00
73651;BME280;61944;52.538;6.108;2023-01-13T07:15:24;99972.91;;;8.04;100.00
73651;BME280;61944;52.538;6.108;2023-01-13T07:17:50;100016.03;;;8.18;100.00
73651;BME280;61944;52.538;6.108;2023-01-13T07:20:16;100002.13;;;7.84;100.00
73651;BME280;61944;52.538;6.108;2023-01-13T07:22:42;100009.28;;;7.81;100.00
73651;BME280;61944;52.538;6.108;2023-01-13T07:25:07;100025.16;;;7.77;100.00
73651;BME280;61944;52.538;6.108;2023-01-13T07:27:33;100017.03;;;7.65;100.00
73651;BME280;61944;52.538;6.108;2023-01-13T07:29:59;100012.28;;;7.65;100.00
73651;BME280;61944;52.538;6.108;2023-01-13T07:32:24;100007.50;;;7.66;100.00
73651;BME280;61944;52.538;6.108;2023-01-13T07:34:50;100015.50;;;7.67;100.00
73651;BME280;61944;52.538;6.108;2023-01-13T07:37:15;100018.66;;;7.66;100.00
73651;BME280;61944;52.538;6.108;2023-01-13T07:39:41;100013.09;;;7.66;100.00
73651;BME280;61944;52.538;6.108;2023-01-13T07:42:07;100000.66;;;7.60;100.00
73651;BME280;61944;52.538;6.108;2023-01-13T07:44:51;100016.72;;;7.70;100.00
73651;BME280;61944;52.538;6.108;2023-01-13T07:47:17;100014.31;;;7.68;100.00
73651;BME280;61944;52.538;6.108;2023-01-13T07:49:43;100020.72;;;7.72;100.00
73651;BME280;61944;52.538;6.108;2023-01-13T07:52:09;100002.69;;;7.63;100.00
73651;BME280;61944;52.538;6.108;2023-01-13T07:54:34;99991.00;;;7.50;100.00
73651;BME280;61944;52.538;6.108;2023-01-13T07:56:59;100014.19;;;7.58;100.00
73651;BME280;61944;52.538;6.108;2023-01-13T07:59:25;100033.31;;;7.63;100.00
73651;BME280;61944;52.538;6.108;2023-01-13T08:01:53;100034.47;;;7.58;100.00
73651;BME280;61944;52.538;6.108;2023-01-13T08:04:19;100046.75;;;7.53;100.00
73651;BME280;61944;52.538;6.108;2023-01-13T08:06:44;100025.47;;;7.38;100.00
73651;BME280;61944;52.538;6.108;2023-01-13T08:09:10;100060.31;;;7.55;100.00
73651;BME280;61944;52.538;6.108;2023-01-13T08:11:35;100064.00;;;7.36;100.00
73651;BME280;61944;52.538;6.108;2023-01-13T08:14:00;100075.00;;;7.25;100.00
73651;BME280;61944;52.538;6.108;2023-01-13T08:16:26;100069.03;;;7.27;100.00
73651;BME280;61944;52.538;6.108;2023-01-13T08:18:51;100070.66;;;7.28;100.00
73651;BME280;61944;52.538;6.108;2023-01-13T08:21:16;100048.94;;;7.10;100.00
73651;BME280;61944;52.538;6.108;2023-01-13T08:23:43;100084.16;;;7.26;100.00
73651;BME280;61944;52.538;6.108;2023-01-13T08:26:12;100066.94;;;7.20;100.00
73651;BME280;61944;52.538;6.108;2023-01-13T08:28:38;100070.50;;;7.17;100.00
73651;BME280;61944;52.538;6.108;2023-01-13T08:31:10;100069.66;;;7.17;100.00
73651;BME280;61944;52.538;6.108;2023-01-13T08:33:36;100065.78;;;7.21;100.00
73651;BME280;61944;52.538;6.108;2023-01-13T08:36:03;100062.44;;;7.12;100.00
73651;BME280;61944;52.538;6.108;2023-01-13T08:38:29;100069.50;;;7.06;100.00
73651;BME280;61944;52.538;6.108;2023-01-13T08:40:55;100078.41;;;7.15;100.00
73651;BME280;61944;52.538;6.108;2023-01-13T08:43:20;100074.22;;;7.28;100.00
73651;BME280;61944;52.538;6.108;2023-01-13T08:45:55;100068.19;;;7.23;100.00
73651;BME280;61944;52.538;6.108;2023-01-13T08:48:20;100079.31;;;7.23;100.00
73651;BME280;61944;52.538;6.108;2023-01-13T08:50:46;100071.28;;;7.18;100.00
73651;BME280;61944;52.538;6.108;2023-01-13T08:53:11;100079.75;;;7.25;100.00
73651;BME280;61944;52.538;6.108;2023-01-13T08:55:38;100089.06;;;7.36;100.00
73651;BME280;61944;52.538;6.108;2023-01-13T08:58:04;100097.72;;;7.31;100.00
73651;BME280;61944;52.538;6.108;2023-01-13T09:00:29;100079.47;;;7.33;100.00
73651;BME280;61944;52.538;6.108;2023-01-13T09:02:55;100083.81;;;7.31;100.00
73651;BME280;61944;52.538;6.108;2023-01-13T09:05:20;100095.94;;;7.42;100.00
73651;BME280;61944;52.538;6.108;2023-01-13T09:07:45;100112.13;;;7.37;100.00
73651;BME280;61944;52.538;6.108;2023-01-13T09:10:11;100108.16;;;7.38;100.00
73651;BME280;61944;52.538;6.108;2023-01-13T09:12:36;100114.56;;;7.38;100.00
73651;BME280;61944;52.538;6.108;2023-01-13T09:15:20;100103.00;;;7.36;100.00
73651;BME280;61944;52.538;6.108;2023-01-13T09:17:46;100120.97;;;7.42;100.00
73651;BME280;61944;52.538;6.108;2023-01-13T09:20:12;100109.84;;;7.42;100.00
73651;BME280;61944;52.538;6.108;2023-01-13T09:22:38;100107.78;;;7.39;100.00
73651;BME280;61944;52.538;6.108;2023-01-13T09:25:05;100120.22;;;7.45;100.00
73651;BME280;61944;52.538;6.108;2023-01-13T09:27:30;100116.91;;;7.36;100.00
73651;BME280;61944;52.538;6.108;2023-01-13T09:29:56;100112.19;;;7.40;100.00
73651;BME280;61944;52.538;6.108;2023-01-13T09:32:21;100131.25;;;7.38;100.00
73651;BME280;61944;52.538;6.108;2023-01-13T09:34:47;100125.28;;;7.40;100.00
73651;BME280;61944;52.538;6.108;2023-01-13T09:37:44;100125.28;;;7.40;100.00
73651;BME280;61944;52.538;6.108;2023-01-13T09:40:18;100114.56;;;7.38;100.00
73651;BME280;61944;52.538;6.108;2023-01-13T09:45:59;100130.94;;;7.43;100.00
73651;BME280;61944;52.538;6.108;2023-01-13T09:48:29;100123.22;;;7.33;100.00
73651;BME280;61944;52.538;6.108;2023-01-13T09:51:05;100136.41;;;7.36;100.00
73651;BME280;61944;52.538;6.108;2023-01-13T09:53:42;100139.72;;;7.45;100.00
73651;BME280;61944;52.538;6.108;2023-01-13T09:56:09;100150.69;;;7.35;100.00
73651;BME280;61944;52.538;6.108;2023-01-13T09:58:35;100147.56;;;7.40;100.00
73651;BME280;61944;52.538;6.108;2023-01-13T10:01:26;100163.22;;;7.48;100.00
73651;BME280;61944;52.538;6.108;2023-01-13T10:03:53;100135.16;;;7.33;100.00
73651;BME280;61944;52.538;6.108;2023-01-13T10:06:37;100149.19;;;7.41;100.00
73651;BME280;61944;52.538;6.108;2023-01-13T10:09:03;100141.31;;;7.20;100.00
73651;BME280;61944;52.538;6.108;2023-01-13T10:11:37;100158.59;;;7.32;100.00
73651;BME280;61944;52.538;6.108;2023-01-13T10:14:26;100167.31;;;7.31;100.00
73651;BME280;61944;52.538;6.108;2023-01-13T10:17:14;100166.16;;;7.32;100.00
73651;BME280;61944;52.538;6.108;2023-01-13T10:20:00;100167.66;;;7.26;100.00
73651;BME280;61944;52.538;6.108;2023-01-13T10:27:51;100177.31;;;7.32;100.00
73651;BME280;61944;52.538;6.108;2023-01-13T10:32:59;100184.41;;;7.29;100.00
73651;BME280;61944;52.538;6.108;2023-01-13T10:40:57;100188.91;;;7.38;100.00
73651;BME280;61944;52.538;6.108;2023-01-13T10:43:24;100188.44;;;7.32;100.00
73651;BME280;61944;52.538;6.108;2023-01-13T10:46:09;100186.09;;;7.34;100.00
73651;BME280;61944;52.538;6.108;2023-01-13T10:51:25;100197.94;;;7.31;100.00
73651;BME280;61944;52.538;6.108;2023-01-13T10:53:58;100195.72;;;7.40;100.00
73651;BME280;61944;52.538;6.108;2023-01-13T10:56:26;100188.47;;;7.36;100.00
73651;BME280;61944;52.538;6.108;2023-01-13T11:01:36;100207.97;;;7.36;100.00
73651;BME280;61944;52.538;6.108;2023-01-13T11:04:23;100205.31;;;7.43;100.00
73651;BME280;61944;52.538;6.108;2023-01-13T11:06:51;100209.66;;;7.40;100.00
73651;BME280;61944;52.538;6.108;2023-01-13T11:09:18;100213.16;;;7.37;100.00
73651;BME280;61944;52.538;6.108;2023-01-13T11:11:45;100225.84;;;7.35;100.00
73651;BME280;61944;52.538;6.108;2023-01-13T11:14:33;100230.72;;;7.41;100.00
73651;BME280;61944;52.538;6.108;2023-01-13T11:19:59;100212.19;;;7.26;100.00
73651;BME280;61944;52.538;6.108;2023-01-13T11:22:36;100219.59;;;7.41;100.00
73651;BME280;61944;52.538;6.108;2023-01-13T11:25:04;100230.31;;;7.39;100.00
73651;BME280;61944;52.538;6.108;2023-01-13T11:27:51;100234.50;;;7.52;100.00
73651;BME280;61944;52.538;6.108;2023-01-13T11:30:54;100226.03;;;7.45;100.00
73651;BME280;61944;52.538;6.108;2023-01-13T11:36:12;100245.59;;;7.49;100.00
73651;BME280;61944;52.538;6.108;2023-01-13T11:38:54;100243.78;;;7.60;100.00
73651;BME280;61944;52.538;6.108;2023-01-13T11:41:35;100250.56;;;7.63;100.00
73651;BME280;61944;52.538;6.108;2023-01-13T11:44:22;100243.09;;;7.67;100.00
73651;BME280;61944;52.538;6.108;2023-01-13T11:46:51;100247.09;;;7.69;100.00
73651;BME280;61944;52.538;6.108;2023-01-13T11:49:35;100255.16;;;7.74;100.00
73651;BME280;61944;52.538;6.108;2023-01-13T11:56:02;100253.91;;;7.72;100.00
73651;BME280;61944;52.538;6.108;2023-01-13T11:58:12;100252.72;;;7.73;100.00
73651;BME280;61944;52.538;6.108;2023-01-13T12:00:56;100256.06;;;7.82;100.00
73651;BME280;61944;52.538;6.108;2023-01-13T12:03:42;100260.09;;;7.85;100.00
73651;BME280;61944;52.538;6.108;2023-01-13T12:06:18;100262.81;;;7.81;100.00
73651;BME280;61944;52.538;6.108;2023-01-13T12:09:03;100272.91;;;7.89;100.00
73651;BME280;61944;52.538;6.108;2023-01-13T12:11:55;100270.16;;;7.93;100.00
73651;BME280;61944;52.538;6.108;2023-01-13T12:15:02;100280.56;;;7.96;100.00
73651;BME280;61944;52.538;6.108;2023-01-13T12:18:23;100289.72;;;7.97;100.00
73651;BME280;61944;52.538;6.108;2023-01-13T12:23:45;100274.25;;;7.99;100.00
73651;BME280;61944;52.538;6.108;2023-01-13T12:26:11;100285.44;;;8.03;100.00
73651;BME280;61944;52.538;6.108;2023-01-13T12:31:08;100282.69;;;8.06;100.00
73651;BME280;61944;52.538;6.108;2023-01-13T12:37:12;100283.63;;;8.14;100.00
73651;BME280;61944;52.538;6.108;2023-01-13T12:40:00;100280.41;;;8.12;100.00
73651;BME280;61944;52.538;6.108;2023-01-13T12:45:24;100292.34;;;8.12;100.00
73651;BME280;61944;52.538;6.108;2023-01-13T12:47:50;100288.78;;;8.12;100.00
73651;BME280;61944;52.538;6.108;2023-01-13T12:52:51;100298.00;;;8.16;100.00
73651;BME280;61944;52.538;6.108;2023-01-13T12:57:58;100309.94;;;8.17;100.00
73651;BME280;61944;52.538;6.108;2023-01-13T13:14:04;100333.16;;;8.24;100.00
73651;BME280;61944;52.538;6.108;2023-01-13T13:16:42;100329.38;;;8.13;100.00
73651;BME280;61944;52.538;6.108;2023-01-13T13:22:49;100342.69;;;8.23;100.00
73651;BME280;61944;52.538;6.108;2023-01-13T13:27:26;100349.06;;;8.24;100.00
73651;BME280;61944;52.538;6.108;2023-01-13T13:29:58;100357.94;;;8.29;100.00
73651;BME280;61944;52.538;6.108;2023-01-13T13:41:11;100379.38;;;8.25;100.00
73651;BME280;61944;52.538;6.108;2023-01-13T13:43:59;100373.00;;;8.25;100.00
73651;BME280;61944;52.538;6.108;2023-01-13T13:46:46;100369.50;;;8.31;100.00
73651;BME280;61944;52.538;6.108;2023-01-13T13:49:21;100391.47;;;8.37;100.00
73651;BME280;61944;52.538;6.108;2023-01-13T13:52:08;100408.91;;;8.30;100.00
73651;BME280;61944;52.538;6.108;2023-01-13T13:54:43;100404.13;;;8.30;100.00
73651;BME280;61944;52.538;6.108;2023-01-13T13:57:28;100408.22;;;8.37;100.00
73651;BME280;61944;52.538;6.108;2023-01-13T13:59:57;100412.19;;;8.35;100.00
73651;BME280;61944;52.538;6.108;2023-01-13T14:02:29;100418.50;;;8.32;100.00
73651;BME280;61944;52.538;6.108;2023-01-13T14:05:24;100432.88;;;8.34;100.00
73651;BME280;61944;52.538;6.108;2023-01-13T14:08:17;100428.50;;;8.33;100.00
73651;BME280;61944;52.538;6.108;2023-01-13T14:10:43;100430.41;;;8.29;100.00
73651;BME280;61944;52.538;6.108;2023-01-13T14:15:45;100429.63;;;8.29;100.00
73651;BME280;61944;52.538;6.108;2023-01-13T14:18:16;100440.81;;;8.32;100.00
73651;BME280;61944;52.538;6.108;2023-01-13T14:20:42;100437.22;;;8.32;100.00
73651;BME280;61944;52.538;6.108;2023-01-13T14:23:15;100464.75;;;8.33;100.00
73651;BME280;61944;52.538;6.108;2023-01-13T14:25:47;100458.41;;;8.37;100.00
73651;BME280;61944;52.538;6.108;2023-01-13T14:28:25;100468.59;;;8.25;100.00
73651;BME280;61944;52.538;6.108;2023-01-13T14:30:52;100480.25;;;8.31;100.00
73651;BME280;61944;52.538;6.108;2023-01-13T14:33:29;100456.66;;;8.25;100.00
73651;BME280;61944;52.538;6.108;2023-01-13T14:36:05;100476.78;;;8.38;100.00
73651;BME280;61944;52.538;6.108;2023-01-13T14:38:30;100473.41;;;8.28;100.00
73651;BME280;61944;52.538;6.108;2023-01-13T14:40:56;100485.94;;;8.38;100.00
73651;BME280;61944;52.538;6.108;2023-01-13T14:43:23;100491.09;;;8.36;100.00
73651;BME280;61944;52.538;6.108;2023-01-13T14:48:20;100501.50;;;8.39;100.00
73651;BME280;61944;52.538;6.108;2023-01-13T14:50:46;100484.72;;;8.35;100.00
73651;BME280;61944;52.538;6.108;2023-01-13T14:53:26;100496.66;;;8.36;100.00
73651;BME280;61944;52.538;6.108;2023-01-13T14:55:53;100515.03;;;8.37;100.00
73651;BME280;61944;52.538;6.108;2023-01-13T14:58:24;100508.69;;;8.40;100.00
73651;BME280;61944;52.538;6.108;2023-01-13T15:00:51;100512.66;;;8.39;100.00
73651;BME280;61944;52.538;6.108;2023-01-13T15:03:40;100517.75;;;8.33;100.00
73651;BME280;61944;52.538;6.108;2023-01-13T15:06:23;100531.25;;;8.31;100.00
73651;BME280;61944;52.538;6.108;2023-01-13T15:08:49;100532.84;;;8.32;100.00